Time;durP1;ratioP1;P1;durP2;ratioP2;P2;SDS_P1;SDS_P2;PMS_P1;PMS_P2;Temp;Humidity;BMP_temperature;BMP_pressure;BME280_temperature;BME280_humidity;BME280_pressure;Samples;Min_cycle;Max_cycle;Signal;HPM_P1;HPM_P2
2022/08/07 00:01:19;;;;;;;5.70;3.15;;;18.60;99.90;;;;;;4993997;28;20626;-75
2022/08/07 00:03:46;;;;;;;4.00;3.45;;;18.60;99.90;;;;;;5011857;28;20266;-75
2022/08/07 00:06:11;;;;;;;3.92;2.75;;;18.60;99.90;;;;;;5011464;28;20224;-75
2022/08/07 00:08:37;;;;;;;3.17;2.40;;;18.60;99.90;;;;;;4992606;28;20701;-75
2022/08/07 00:11:04;;;;;;;4.80;2.85;;;18.60;99.90;;;;;;5011650;28;20180;-76
2022/08/07 00:13:30;;;;;;;5.45;3.20;;;18.60;99.90;;;;;;4994013;28;20204;-76
2022/08/07 00:15:56;;;;;;;6.30;3.72;;;18.60;99.90;;;;;;5050480;23;20228;-70
2022/08/07 00:18:25;;;;;;;4.72;3.35;;;18.50;99.90;;;;;;5031771;28;20273;-70
2022/08/07 00:20:53;;;;;;;3.70;2.70;;;18.50;99.90;;;;;;5033374;28;20258;-71
2022/08/07 00:23:19;;;;;;;4.45;2.83;;;18.40;99.90;;;;;;5031146;28;20179;-67
2022/08/07 00:25:44;;;;;;;4.70;3.00;;;18.40;99.90;;;;;;5030932;28;20537;-68
2022/08/07 00:28:10;;;;;;;5.00;3.38;;;18.30;99.90;;;;;;5030650;28;20204;-67
2022/08/07 00:30:35;;;;;;;5.28;3.05;;;18.30;99.90;;;;;;5030881;28;20590;-68
2022/08/07 00:33:01;;;;;;;4.43;3.60;;;18.40;99.90;;;;;;5012920;28;20611;-71
2022/08/07 00:35:28;;;;;;;6.07;4.88;;;18.30;99.90;;;;;;5030570;28;20299;-71
2022/08/07 00:37:54;;;;;;;4.22;3.70;;;18.30;99.90;;;;;;5030989;28;20337;-70
2022/08/07 00:40:20;;;;;;;3.75;3.00;;;18.20;99.90;;;;;;5030490;28;20283;-70
2022/08/07 00:42:46;;;;;;;8.35;5.03;;;18.10;99.90;;;;;;5027641;28;20729;-71
2022/08/07 00:45:12;;;;;;;8.35;3.42;;;18.10;99.90;;;;;;5030769;28;20306;-70
2022/08/07 00:47:38;;;;;;;5.40;3.72;;;18.10;99.90;;;;;;5030202;28;20711;-70
2022/08/07 00:50:05;;;;;;;3.83;2.92;;;18.00;99.90;;;;;;5033398;28;20176;-70
2022/08/07 00:52:30;;;;;;;5.28;3.17;;;18.00;99.90;;;;;;5030812;28;20172;-70
2022/08/07 00:54:56;;;;;;;4.72;2.90;;;18.00;99.90;;;;;;5030362;28;20200;-69
2022/08/07 00:57:23;;;;;;;5.93;3.70;;;18.00;99.90;;;;;;5030067;28;20223;-70
2022/08/07 00:59:49;;;;;;;5.07;3.83;;;18.00;99.90;;;;;;5030328;28;20246;-70
2022/08/07 01:02:14;;;;;;;5.43;3.33;;;18.00;99.90;;;;;;5030331;28;20578;-70
2022/08/07 01:04:40;;;;;;;5.20;3.40;;;18.00;99.90;;;;;;5021469;28;20728;-70
2022/08/07 01:07:06;;;;;;;5.82;3.20;;;18.00;99.90;;;;;;5030243;28;20665;-70
2022/08/07 01:09:32;;;;;;;6.30;4.28;;;18.00;99.90;;;;;;5010712;28;20258;-70
2022/08/07 01:11:58;;;;;;;4.32;3.08;;;18.00;99.90;;;;;;5030289;28;20200;-70
2022/08/07 01:14:25;;;;;;;11.93;9.02;;;18.00;99.90;;;;;;5021045;28;20541;-70
2022/08/07 01:16:52;;;;;;;8.40;4.57;;;17.90;99.90;;;;;;5030735;28;20262;-70
2022/08/07 01:19:19;;;;;;;4.80;3.10;;;17.90;99.90;;;;;;5012688;28;20914;-70
2022/08/07 01:21:49;;;;;;;10.52;3.53;;;17.80;99.90;;;;;;5030347;28;20207;-70
2022/08/07 01:24:16;;;;;;;5.70;3.55;;;17.80;99.90;;;;;;5028862;28;20204;-70
2022/08/07 01:26:42;;;;;;;5.47;3.63;;;17.80;99.90;;;;;;5023085;28;20603;-69
2022/08/07 01:29:10;;;;;;;5.03;3.30;;;17.70;99.90;;;;;;5030077;28;20215;-69
2022/08/07 01:31:37;;;;;;;5.05;3.10;;;17.70;99.90;;;;;;5030892;28;20193;-70
2022/08/07 01:34:04;;;;;;;4.65;3.20;;;17.60;99.90;;;;;;5030339;28;20216;-70
2022/08/07 01:36:30;;;;;;;6.30;3.75;;;17.60;99.90;;;;;;5030242;28;20215;-70
2022/08/07 01:38:56;;;;;;;5.93;3.05;;;17.60;99.90;;;;;;5030072;28;20218;-70
2022/08/07 01:41:23;;;;;;;6.15;3.47;;;17.60;99.90;;;;;;5021240;28;20208;-70
2022/08/07 01:43:49;;;;;;;4.07;2.90;;;17.50;99.90;;;;;;5030616;28;20179;-70
2022/08/07 01:46:16;;;;;;;5.47;3.00;;;17.50;99.90;;;;;;5012415;28;20599;-70
2022/08/07 01:48:43;;;;;;;4.55;3.28;;;17.40;99.90;;;;;;5020103;28;20203;-70
2022/08/07 01:51:13;;;;;;;6.05;2.90;;;17.50;99.90;;;;;;5030162;28;20206;-70
2022/08/07 01:53:43;;;;;;;3.72;2.47;;;17.50;99.90;;;;;;5029978;28;20947;-70
2022/08/07 01:56:14;;;;;;;3.92;3.10;;;17.40;99.90;;;;;;5029881;28;20250;-69
2022/08/07 01:58:52;;;;;;;4.25;3.17;;;17.40;99.90;;;;;;5029908;28;20569;-70
2022/08/07 02:01:24;;;;;;;6.65;3.28;;;17.40;99.90;;;;;;5027947;28;20905;-70
2022/08/07 02:04:02;;;;;;;6.13;3.20;;;17.40;99.90;;;;;;5028966;28;20208;-69
2022/08/07 02:06:31;;;;;;;6.35;3.60;;;17.40;99.90;;;;;;5009626;28;20249;-69
2022/08/07 02:08:59;;;;;;;4.80;3.17;;;17.30;99.90;;;;;;5031985;28;20254;-69
2022/08/07 02:11:25;;;;;;;6.28;3.67;;;17.30;99.90;;;;;;5033352;28;20208;-72
2022/08/07 02:13:52;;;;;;;5.97;3.22;;;17.30;99.90;;;;;;5015973;28;20534;-69
2022/08/07 02:16:21;;;;;;;5.90;3.10;;;17.30;99.90;;;;;;5033281;28;20208;-70
2022/08/07 02:18:49;;;;;;;3.95;3.10;;;17.30;99.90;;;;;;5030763;28;20211;-70
2022/08/07 02:21:17;;;;;;;4.57;3.00;;;17.30;99.90;;;;;;5015513;28;20250;-70
2022/08/07 02:23:43;;;;;;;4.15;3.50;;;17.20;99.90;;;;;;5028942;28;20208;-69
2022/08/07 02:26:10;;;;;;;5.63;3.03;;;17.20;99.90;;;;;;5029426;28;20192;-69
2022/08/07 02:28:36;;;;;;;4.78;3.08;;;17.20;99.90;;;;;;5033373;28;20204;-69
2022/08/07 02:31:03;;;;;;;5.57;3.30;;;17.20;99.90;;;;;;5033100;28;20250;-70
2022/08/07 02:33:31;;;;;;;5.03;3.17;;;17.20;99.90;;;;;;5033003;28;20215;-70
2022/08/07 02:36:00;;;;;;;6.45;3.30;;;17.20;99.90;;;;;;5032838;28;20208;-68
2022/08/07 02:38:34;;;;;;;4.60;3.13;;;17.20;99.90;;;;;;5028810;28;20700;-69
2022/08/07 02:41:01;;;;;;;5.45;3.05;;;17.20;99.90;;;;;;5032839;28;20666;-69
2022/08/07 02:43:28;;;;;;;4.40;3.97;;;17.20;99.90;;;;;;5015036;28;20183;-70
2022/08/07 02:45:55;;;;;;;4.88;3.55;;;17.20;99.90;;;;;;5032384;28;20210;-70
2022/08/07 02:48:21;;;;;;;5.90;3.35;;;17.10;99.90;;;;;;5028604;28;20207;-69
2022/08/07 02:50:51;;;;;;;8.55;5.18;;;17.20;99.90;;;;;;5034516;28;20193;-70
2022/08/07 02:53:32;;;;;;;5.05;4.55;;;17.10;99.90;;;;;;5032637;28;20176;-70
2022/08/07 02:56:00;;;;;;;6.10;3.50;;;17.00;99.90;;;;;;5029786;28;20188;-70
2022/08/07 02:58:27;;;;;;;7.25;4.25;;;17.10;99.90;;;;;;5032021;28;20212;-70
2022/08/07 03:00:56;;;;;;;4.75;3.30;;;17.00;99.90;;;;;;5032456;28;20200;-70
2022/08/07 03:03:23;;;;;;;3.80;3.10;;;17.10;99.90;;;;;;5031756;28;20203;-69
2022/08/07 03:05:51;;;;;;;3.63;2.58;;;17.00;99.90;;;;;;5028506;28;20656;-70
2022/08/07 03:08:17;;;;;;;4.10;2.60;;;17.00;99.90;;;;;;5031979;28;20188;-70
2022/08/07 03:10:45;;;;;;;2.67;2.13;;;17.10;99.90;;;;;;5032490;28;20172;-70
2022/08/07 03:13:12;;;;;;;3.60;2.70;;;17.10;99.90;;;;;;5031997;28;20295;-70
2022/08/07 03:15:37;;;;;;;3.05;2.60;;;17.10;99.90;;;;;;5031794;28;20258;-69
2022/08/07 03:18:03;;;;;;;4.07;2.28;;;17.10;99.90;;;;;;5031796;28;20638;-69
2022/08/07 03:20:29;;;;;;;4.25;2.42;;;17.20;99.90;;;;;;5022939;28;20200;-69
2022/08/07 03:22:56;;;;;;;4.95;2.58;;;17.20;99.90;;;;;;5016658;28;20318;-69
2022/08/07 03:25:23;;;;;;;3.00;2.38;;;17.20;99.90;;;;;;5031519;28;20254;-69
2022/08/07 03:27:49;;;;;;;4.30;2.15;;;17.20;99.90;;;;;;5031842;28;20294;-70
2022/08/07 03:30:16;;;;;;;6.00;2.63;;;17.20;99.90;;;;;;5031396;28;20628;-70
2022/08/07 03:32:42;;;;;;;5.63;2.30;;;17.10;99.90;;;;;;5031702;28;20208;-70
2022/08/07 03:35:14;;;;;;;4.53;2.40;;;17.10;99.90;;;;;;5027970;28;20540;-69
2022/08/07 03:37:43;;;;;;;4.05;2.55;;;17.10;99.90;;;;;;5027573;28;20200;-70
2022/08/07 03:40:10;;;;;;;5.47;3.28;;;17.10;99.90;;;;;;5031453;28;20288;-69
2022/08/07 03:42:36;;;;;;;6.28;3.08;;;17.10;99.90;;;;;;5031493;28;20208;-69
2022/08/07 03:45:03;;;;;;;3.70;2.58;;;16.90;99.90;;;;;;5027320;28;20719;-70
2022/08/07 03:47:30;;;;;;;4.90;2.92;;;17.00;99.90;;;;;;5022777;28;20763;-69
2022/08/07 03:49:56;;;;;;;2.97;2.45;;;17.10;99.90;;;;;;5031650;28;20168;-70
2022/08/07 03:52:26;;;;;;;7.45;3.25;;;17.20;99.90;;;;;;5031190;28;20196;-68
2022/08/07 03:54:52;;;;;;;3.95;2.80;;;17.30;99.90;;;;;;5013336;28;20243;-68
2022/08/07 03:57:19;;;;;;;5.32;2.47;;;17.30;99.90;;;;;;5013512;28;20204;-69
2022/08/07 03:59:45;;;;;;;3.63;2.15;;;17.30;99.90;;;;;;5030399;28;20587;-69
2022/08/07 04:02:11;;;;;;;3.35;2.35;;;17.30;99.90;;;;;;5031371;28;20168;-68
2022/08/07 04:04:37;;;;;;;2.50;1.83;;;17.40;99.90;;;;;;5031213;28;20723;-68
2022/08/07 04:07:03;;;;;;;3.92;2.15;;;17.50;99.90;;;;;;5031012;28;20205;-68
2022/08/07 04:09:30;;;;;;;3.45;2.28;;;17.60;99.90;;;;;;5030587;28;20196;-69
2022/08/07 04:11:55;;;;;;;3.35;2.67;;;17.90;99.90;;;;;;5031110;28;20603;-68
2022/08/07 04:14:23;;;;;;;5.68;2.50;;;19.10;99.90;;;;;;5021156;28;20318;-67
2022/08/07 04:16:49;;;;;;;3.38;2.08;;;20.50;99.90;;;;;;5031353;28;20169;-69
2022/08/07 04:19:15;;;;;;;4.40;2.30;;;21.50;99.90;;;;;;5030385;28;20200;-69
2022/08/07 04:21:41;;;;;;;4.57;2.53;;;22.10;99.90;;;;;;5030501;28;20210;-68
2022/08/07 04:24:09;;;;;;;2.83;2.20;;;21.50;99.90;;;;;;5032634;28;20250;-68
2022/08/07 04:26:38;;;;;;;2.83;2.28;;;20.70;99.90;;;;;;5030300;28;20681;-68
2022/08/07 04:29:07;;;;;;;5.13;4.30;;;20.20;99.90;;;;;;5030171;28;20177;-69
2022/08/07 04:31:33;;;;;;;6.53;3.60;;;19.90;99.90;;;;;;5025468;28;20597;-68
2022/08/07 04:33:59;;;;;;;4.90;2.78;;;19.60;99.90;;;;;;5030618;28;20287;-69
2022/08/07 04:36:24;;;;;;;4.78;3.30;;;19.30;99.90;;;;;;5009879;28;20233;-69
2022/08/07 04:38:50;;;;;;;3.97;2.70;;;19.30;99.90;;;;;;5028261;28;20236;-69
2022/08/07 04:41:16;;;;;;;4.22;2.90;;;19.30;99.90;;;;;;5030345;28;20519;-69
2022/08/07 04:43:43;;;;;;;4.78;3.60;;;20.00;99.90;;;;;;5030875;28;20181;-68
2022/08/07 04:46:22;;;;;;;3.72;2.90;;;22.80;99.90;;;;;;5030641;28;20208;-71
2022/08/07 04:49:00;;;;;;;4.43;2.92;;;24.40;99.90;;;;;;5030166;28;20203;-72
2022/08/07 04:51:46;;;;;;;3.35;2.55;;;25.50;99.90;;;;;;5012076;28;20265;-69
2022/08/07 04:54:36;;;;;;;3.28;2.13;;;26.30;99.90;;;;;;5026645;28;20266;-70
2022/08/07 04:57:27;;;;;;;5.95;4.35;;;27.20;99.90;;;;;;5028407;28;20204;-69
2022/08/07 05:00:00;;;;;;;6.20;3.83;;;28.40;99.20;;;;;;5027853;28;20249;-69
2022/08/07 05:02:31;;;;;;;10.63;7.55;;;28.90;96.90;;;;;;5012112;28;20562;-69
2022/08/07 05:05:07;;;;;;;5.30;2.83;;;29.80;94.40;;;;;;5027462;28;20667;-69
2022/08/07 05:07:57;;;;;;;5.50;2.92;;;29.50;93.00;;;;;;5030696;28;20211;-69
2022/08/07 05:10:40;;;;;;;3.90;2.70;;;29.20;92.20;;;;;;5000645;28;20565;-69
2022/08/07 05:13:15;;;;;;;5.75;2.60;;;28.20;92.40;;;;;;5028228;28;20235;-69
2022/08/07 05:15:48;;;;;;;7.47;5.25;;;27.70;92.50;;;;;;5030074;28;20236;-70
2022/08/07 05:18:29;;;;;;;7.35;5.72;;;28.50;92.20;;;;;;5027147;28;20211;-68
2022/08/07 05:21:03;;;;;;;6.03;2.25;;;28.90;91.80;;;;;;5029770;28;20566;-70
2022/08/07 05:23:38;;;;;;;4.43;2.10;;;28.10;90.70;;;;;;5032100;28;20573;-69
2022/08/07 05:26:09;;;;;;;2.85;2.15;;;27.70;91.60;;;;;;5033068;28;20298;-70
2022/08/07 05:28:35;;;;;;;3.50;2.10;;;27.50;91.30;;;;;;5024446;28;20165;-68
2022/08/07 05:31:02;;;;;;;2.25;2.05;;;27.20;91.70;;;;;;5030521;28;20347;-69
2022/08/07 05:33:29;;;;;;;2.70;2.20;;;27.80;92.00;;;;;;5030258;28;20211;-70
2022/08/07 05:35:55;;;;;;;5.25;2.40;;;28.10;91.00;;;;;;5030491;28;20200;-70
2022/08/07 05:38:21;;;;;;;4.40;2.40;;;27.60;91.40;;;;;;5029879;28;20306;-71
2022/08/07 05:40:48;;;;;;;3.55;2.30;;;28.00;91.30;;;;;;5026834;28;20687;-69
2022/08/07 05:43:15;;;;;;;3.22;2.25;;;29.10;90.30;;;;;;5014413;28;20208;-69
2022/08/07 05:45:42;;;;;;;3.53;2.10;;;28.50;89.50;;;;;;5034290;28;20211;-69
2022/08/07 05:48:08;;;;;;;4.75;3.53;;;28.40;90.00;;;;;;5034336;28;20219;-69
2022/08/07 05:50:35;;;;;;;4.07;2.78;;;28.70;88.60;;;;;;5025224;28;20681;-70
2022/08/07 05:53:01;;;;;;;2.80;1.88;;;27.90;89.30;;;;;;5033885;28;20707;-70
2022/08/07 05:55:28;;;;;;;2.75;1.80;;;27.90;90.00;;;;;;5016353;28;20196;-70
2022/08/07 05:57:55;;;;;;;1.98;1.75;;;28.90;89.60;;;;;;5033864;28;20207;-70
2022/08/07 06:00:23;;;;;;;3.33;2.10;;;28.90;87.60;;;;;;5033169;28;20201;-68
2022/08/07 06:02:50;;;;;;;3.80;2.17;;;28.90;86.90;;;;;;5033888;28;20214;-69
2022/08/07 06:05:16;;;;;;;6.07;2.30;;;28.80;87.80;;;;;;5033838;28;20245;-70
2022/08/07 06:07:43;;;;;;;3.90;2.60;;;29.10;85.90;;;;;;5034250;28;20526;-70
2022/08/07 06:10:10;;;;;;;4.13;2.33;;;29.10;84.30;;;;;;5033345;28;20555;-69
2022/08/07 06:12:36;;;;;;;1.88;1.40;;;29.80;84.50;;;;;;5033440;28;20212;-69
2022/08/07 06:15:02;;;;;;;2.90;1.90;;;29.40;80.80;;;;;;5033339;28;20711;-69
2022/08/07 06:17:29;;;;;;;2.45;1.80;;;29.00;82.10;;;;;;5016829;28;20204;-69
2022/08/07 06:19:56;;;;;;;3.42;2.33;;;28.70;81.70;;;;;;5033701;28;20178;-70
2022/08/07 06:22:23;;;;;;;3.22;1.95;;;28.50;81.10;;;;;;5033344;28;20290;-70
2022/08/07 06:24:49;;;;;;;2.08;1.60;;;28.80;82.00;;;;;;5034878;28;20204;-70
2022/08/07 06:27:22;;;;;;;3.30;1.83;;;28.40;81.20;;;;;;5033248;28;20196;-68
2022/08/07 06:29:48;;;;;;;1.90;1.63;;;29.10;80.50;;;;;;5032019;28;20200;-69
2022/08/07 06:32:13;;;;;;;2.45;1.55;;;29.80;78.50;;;;;;5033342;28;20177;-69
2022/08/07 06:34:39;;;;;;;2.35;2.00;;;29.20;78.40;;;;;;5032671;28;20203;-69
2022/08/07 06:37:04;;;;;;;2.85;1.80;;;29.40;78.60;;;;;;5033095;28;20200;-71
2022/08/07 06:39:31;;;;;;;2.05;1.70;;;29.30;77.60;;;;;;5032384;28;20588;-69
2022/08/07 06:42:07;;;;;;;3.22;1.95;;;29.10;78.10;;;;;;5032862;28;20204;-69
2022/08/07 06:44:34;;;;;;;6.43;1.88;;;29.50;78.10;;;;;;5032775;28;20615;-69
2022/08/07 06:47:00;;;;;;;3.35;2.20;;;30.40;76.30;;;;;;5032915;28;20179;-69
2022/08/07 06:49:26;;;;;;;2.72;1.70;;;30.40;75.00;;;;;;5032812;28;20621;-68
2022/08/07 06:51:54;;;;;;;3.15;1.52;;;30.60;74.90;;;;;;5035441;28;20211;-70
2022/08/07 06:54:23;;;;;;;3.95;1.70;;;30.90;74.10;;;;;;5032606;28;20207;-69
2022/08/07 06:56:50;;;;;;;2.42;1.80;;;31.30;73.50;;;;;;5014455;28;20234;-69
2022/08/07 06:59:30;;;;;;;2.83;1.65;;;31.30;71.80;;;;;;5014567;28;20211;-69
2022/08/07 07:01:57;;;;;;;4.05;1.60;;;31.00;72.00;;;;;;5032186;28;20168;-69
2022/08/07 07:04:24;;;;;;;3.30;1.92;;;31.20;72.70;;;;;;5032517;28;20195;-68
2022/08/07 07:06:50;;;;;;;2.60;1.80;;;32.10;71.10;;;;;;5032234;28;20203;-69
2022/08/07 07:09:18;;;;;;;2.72;2.08;;;30.40;69.10;;;;;;5014215;28;20261;-69
2022/08/07 07:11:56;;;;;;;1.90;1.67;;;30.90;71.20;;;;;;5032200;28;20203;-69
2022/08/07 07:14:25;;;;;;;2.42;2.20;;;31.00;69.80;;;;;;5028778;28;20199;-69
2022/08/07 07:16:54;;;;;;;2.60;1.67;;;30.60;70.50;;;;;;5032684;28;20191;-70
2022/08/07 07:19:25;;;;;;;3.25;1.98;;;30.10;70.60;;;;;;5031943;28;20834;-68
2022/08/07 07:21:53;;;;;;;2.35;1.70;;;30.40;70.70;;;;;;5032144;28;20224;-69
2022/08/07 07:24:19;;;;;;;2.70;1.55;;;31.00;70.10;;;;;;5033399;28;20219;-69
2022/08/07 07:26:46;;;;;;;3.65;1.88;;;31.80;69.40;;;;;;5034130;28;20226;-69
2022/08/07 07:29:16;;;;;;;3.33;2.00;;;31.00;67.40;;;;;;5032046;28;20172;-70
2022/08/07 07:31:45;;;;;;;3.67;1.60;;;31.10;68.90;;;;;;5032092;28;20203;-69
2022/08/07 07:34:15;;;;;;;2.40;1.75;;;32.80;67.40;;;;;;5027944;28;20570;-69
2022/08/07 07:36:43;;;;;;;2.13;1.65;;;33.40;65.30;;;;;;5031674;28;20715;-68
2022/08/07 07:39:10;;;;;;;4.20;1.85;;;35.00;64.00;;;;;;5031585;28;20230;-68
2022/08/07 07:41:39;;;;;;;3.35;2.22;;;36.20;59.80;;;;;;5029287;28;20219;-69
2022/08/07 07:44:08;;;;;;;6.85;2.75;;;34.70;59.90;;;;;;5031893;28;20245;-69
2022/08/07 07:46:36;;;;;;;2.53;2.20;;;32.20;61.80;;;;;;5023788;28;20282;-69
2022/08/07 07:49:03;;;;;;;2.65;1.90;;;33.10;62.60;;;;;;5014074;28;20338;-69
2022/08/07 07:51:30;;;;;;;3.00;1.92;;;33.80;62.00;;;;;;5032236;28;20195;-71
2022/08/07 07:53:57;;;;;;;3.78;3.38;;;31.40;63.90;;;;;;5031980;28;20203;-68
2022/08/07 07:56:26;;;;;;;2.90;2.30;;;31.10;65.20;;;;;;5028172;28;20238;-69
2022/08/07 07:58:54;;;;;;;3.47;3.17;;;31.90;64.40;;;;;;5031704;28;20192;-68
2022/08/07 08:01:21;;;;;;;2.80;1.92;;;31.20;64.40;;;;;;5013593;28;20199;-68
2022/08/07 08:03:49;;;;;;;7.95;5.47;;;31.80;64.30;;;;;;5030532;28;20204;-68
2022/08/07 08:06:17;;;;;;;2.25;1.70;;;33.00;64.00;;;;;;5031037;28;20226;-68
2022/08/07 08:08:43;;;;;;;3.92;1.63;;;32.30;62.90;;;;;;5030942;28;20195;-68
2022/08/07 08:11:10;;;;;;;2.00;1.60;;;32.40;64.00;;;;;;5031485;28;20172;-69
2022/08/07 08:13:43;;;;;;;2.25;1.50;;;31.80;63.90;;;;;;5022807;28;20266;-68
2022/08/07 08:16:15;;;;;;;2.47;1.63;;;31.50;65.00;;;;;;5013523;28;20317;-69
2022/08/07 08:18:42;;;;;;;3.00;1.40;;;30.20;66.10;;;;;;5030136;28;20792;-69
2022/08/07 08:27:03;;;;;;;2.30;1.40;;;30.20;66.40;;;;;;5031434;28;20203;-69
2022/08/07 08:29:27;;;;;;;1.85;1.23;;;32.10;65.80;;;;;;5030657;28;20206;-70
2022/08/07 08:31:54;;;;;;;3.97;1.38;;;31.90;65.00;;;;;;5031626;28;20178;-68
2022/08/07 08:34:22;;;;;;;1.67;1.10;;;32.70;63.90;;;;;;5030943;28;20615;-69
2022/08/07 08:36:48;;;;;;;1.80;1.20;;;32.80;63.60;;;;;;5030473;28;20196;-70
2022/08/07 08:39:14;;;;;;;2.95;1.60;;;33.40;63.30;;;;;;5030534;28;20249;-69
2022/08/07 08:41:52;;;;;;;1.73;1.15;;;33.80;62.50;;;;;;5030277;28;20211;-70
2022/08/07 08:44:29;;;;;;;3.05;1.63;;;34.70;61.60;;;;;;5028296;28;20565;-70
2022/08/07 08:47:07;;;;;;;2.72;1.50;;;34.70;61.30;;;;;;5030586;28;20567;-70
2022/08/07 08:49:55;;;;;;;2.38;1.40;;;33.30;60.60;;;;;;5030366;28;20222;-69
2022/08/07 08:52:31;;;;;;;3.92;2.80;;;31.40;62.20;;;;;;5028441;28;20250;-67
2022/08/07 08:55:06;;;;;;;3.63;2.40;;;31.70;64.80;;;;;;5030495;28;20299;-70
2022/08/07 08:57:39;;;;;;;2.65;1.60;;;32.40;63.60;;;;;;5030298;28;20605;-69
2022/08/07 09:00:08;;;;;;;4.72;1.63;;;32.80;62.10;;;;;;5030389;28;20247;-69
2022/08/07 09:02:45;;;;;;;2.33;1.40;;;33.10;61.70;;;;;;5022152;28;20600;-70
2022/08/07 09:05:29;;;;;;;2.17;1.75;;;33.50;61.00;;;;;;5030497;28;20695;-70
2022/08/07 09:08:04;;;;;;;4.10;1.75;;;33.10;60.40;;;;;;5030833;28;20632;-69
2022/08/07 09:11:05;;;;;;;2.17;1.98;;;32.60;62.00;;;;;;5030609;28;20277;-69
2022/08/07 09:13:55;;;;;;;2.80;1.60;;;31.70;63.00;;;;;;5028159;28;20199;-69
2022/08/07 09:16:36;;;;;;;4.03;1.67;;;30.20;64.70;;;;;;5026855;28;20220;-69
2022/08/07 09:19:04;;;;;;;4.65;1.60;;;28.40;67.20;;;;;;5016561;28;20210;-69
2022/08/07 09:21:30;;;;;;;2.10;1.42;;;28.00;67.20;;;;;;5034077;28;20212;-68
2022/08/07 09:24:32;;;;;;;1.95;1.45;;;28.00;68.30;;;;;;5017250;28;20257;-69
2022/08/07 09:27:00;;;;;;;3.20;1.70;;;27.80;69.30;;;;;;5033466;28;20210;-69
2022/08/07 09:29:41;;;;;;;4.25;1.42;;;27.60;68.70;;;;;;5034389;28;20601;-69
2022/08/07 09:32:25;;;;;;;1.77;1.48;;;28.50;67.90;;;;;;5034500;28;20169;-69
2022/08/07 09:35:13;;;;;;;4.68;1.75;;;28.80;67.70;;;;;;5030325;28;20181;-69
2022/08/07 09:37:53;;;;;;;2.50;1.50;;;29.70;67.50;;;;;;5033422;28;20234;-69
2022/08/07 09:40:46;;;;;;;5.00;1.73;;;28.20;67.00;;;;;;5033811;28;20607;-69
2022/08/07 09:43:49;;;;;;;2.95;1.40;;;27.90;69.30;;;;;;5030399;28;20204;-69
2022/08/07 09:46:33;;;;;;;2.45;1.35;;;28.50;68.30;;;;;;5032354;28;20699;-69
2022/08/07 09:49:42;;;;;;;2.28;1.40;;;29.00;67.00;;;;;;5027211;28;20615;-69
2022/08/07 09:52:39;;;;;;;3.38;1.30;;;27.90;67.50;;;;;;5030352;28;20205;-69
2022/08/07 09:55:32;;;;;;;2.55;1.13;;;27.40;68.70;;;;;;5033358;28;20250;-69
2022/08/07 09:58:13;;;;;;;2.33;1.38;;;27.10;69.50;;;;;;5025473;28;20204;-68
2022/08/07 10:01:08;;;;;;;5.30;2.45;;;27.00;69.90;;;;;;5028150;28;20204;-68
2022/08/07 10:03:50;;;;;;;2.53;1.63;;;26.30;70.40;;;;;;5031790;28;20666;-68
2022/08/07 10:06:29;;;;;;;2.53;1.40;;;25.90;72.30;;;;;;5015670;28;20657;-70
2022/08/07 10:09:20;;;;;;;1.33;1.20;;;26.00;72.90;;;;;;5031724;28;20200;-69
2022/08/07 10:12:01;;;;;;;5.03;2.97;;;26.20;72.80;;;;;;5032040;28;20218;-69
2022/08/07 10:14:45;;;;;;;4.03;1.75;;;26.70;72.70;;;;;;5030597;28;20204;-69
2022/08/07 10:17:38;;;;;;;4.80;2.50;;;26.50;71.70;;;;;;5029083;28;20516;-69
2022/08/07 10:20:14;;;;;;;1.85;1.20;;;26.20;72.20;;;;;;5029752;28;20172;-69
2022/08/07 10:22:43;;;;;;;1.58;1.20;;;25.70;72.90;;;;;;5034302;28;20168;-67
2022/08/07 10:25:36;;;;;;;2.88;1.45;;;25.80;73.60;;;;;;5033159;28;20212;-69
2022/08/07 10:28:31;;;;;;;2.80;1.90;;;27.00;73.20;;;;;;5032808;28;20581;-70
2022/08/07 10:31:18;;;;;;;3.08;1.30;;;27.90;72.50;;;;;;5030023;28;20197;-69
2022/08/07 10:33:53;;;;;;;4.63;2.58;;;28.40;71.90;;;;;;5029109;28;20703;-69
2022/08/07 10:36:57;;;;;;;2.53;1.55;;;29.00;72.00;;;;;;5033037;28;20281;-68
2022/08/07 10:40:00;;;;;;;2.90;1.70;;;29.50;69.90;;;;;;5024495;28;20622;-70
2022/08/07 10:42:41;;;;;;;2.20;1.73;;;29.80;69.00;;;;;;5028898;28;20210;-69
2022/08/07 10:45:29;;;;;;;2.55;1.45;;;29.80;69.20;;;;;;5029900;28;20232;-70
2022/08/07 10:48:09;;;;;;;1.52;1.30;;;30.10;68.60;;;;;;5029374;28;20216;-69
2022/08/07 10:50:49;;;;;;;2.08;1.52;;;29.50;67.80;;;;;;5030601;28;20208;-69
2022/08/07 10:53:23;;;;;;;3.75;2.78;;;29.10;68.10;;;;;;5030113;28;20180;-70
2022/08/07 10:56:04;;;;;;;5.20;4.30;;;29.50;69.00;;;;;;5015021;28;20245;-69
2022/08/07 10:59:07;;;;;;;3.15;1.83;;;29.30;69.20;;;;;;5030263;28;20558;-70
2022/08/07 11:01:54;;;;;;;2.70;1.85;;;28.60;69.10;;;;;;5032060;28;20196;-69
2022/08/07 11:04:46;;;;;;;1.88;1.30;;;28.60;70.00;;;;;;5031930;28;20669;-69
2022/08/07 11:07:22;;;;;;;3.17;1.38;;;28.20;70.00;;;;;;5031929;28;20205;-69
2022/08/07 11:09:54;;;;;;;3.20;1.55;;;27.60;70.50;;;;;;5011870;28;20610;-68
2022/08/07 11:12:27;;;;;;;1.83;1.10;;;27.40;71.60;;;;;;5011439;28;20209;-71
2022/08/07 11:14:58;;;;;;;2.15;1.27;;;27.60;71.40;;;;;;5028462;28;20212;-68
2022/08/07 11:17:47;;;;;;;3.53;1.33;;;27.70;70.50;;;;;;5031715;28;20210;-69
2022/08/07 11:20:23;;;;;;;3.65;1.67;;;28.40;70.70;;;;;;5030839;28;20169;-70
2022/08/07 11:23:13;;;;;;;3.38;1.65;;;28.00;69.70;;;;;;5033287;28;20188;-69
2022/08/07 11:25:45;;;;;;;2.40;1.15;;;28.10;70.50;;;;;;5031613;28;20242;-69
2022/08/07 11:28:27;;;;;;;2.25;1.48;;;28.00;69.70;;;;;;5013782;28;20679;-69
2022/08/07 11:31:25;;;;;;;1.73;1.30;;;27.50;70.30;;;;;;5028100;28;20300;-69
2022/08/07 11:34:16;;;;;;;5.28;1.77;;;27.40;71.00;;;;;;5011181;28;20199;-71
2022/08/07 11:36:51;;;;;;;3.00;1.10;;;27.40;70.80;;;;;;5031065;28;20254;-69
2022/08/07 11:39:28;;;;;;;5.93;2.17;;;27.10;70.20;;;;;;5031323;28;20257;-69
2022/08/07 11:42:24;;;;;;;2.70;1.55;;;27.10;71.50;;;;;;5027869;28;20207;-69
2022/08/07 11:45:15;;;;;;;3.85;1.65;;;27.20;70.90;;;;;;5009406;28;20316;-69
2022/08/07 11:47:56;;;;;;;3.03;2.10;;;27.40;70.50;;;;;;5030682;28;20227;-69
2022/08/07 11:50:33;;;;;;;1.85;1.40;;;27.60;70.30;;;;;;5028048;28;20211;-69
2022/08/07 11:53:12;;;;;;;2.28;1.67;;;27.20;69.40;;;;;;5031391;28;20192;-69
2022/08/07 11:55:49;;;;;;;2.53;1.70;;;27.00;70.40;;;;;;5013232;28;20207;-69
2022/08/07 11:58:34;;;;;;;4.78;3.10;;;27.00;71.60;;;;;;5013437;28;20579;-69
2022/08/07 12:01:29;;;;;;;2.53;2.00;;;27.10;71.70;;;;;;5010303;28;20196;-69
2022/08/07 12:04:31;;;;;;;3.75;2.38;;;27.00;71.50;;;;;;4991483;28;20200;-69
2022/08/07 12:07:24;;;;;;;3.50;2.08;;;27.00;71.70;;;;;;5024730;28;20219;-69
2022/08/07 12:09:58;;;;;;;2.40;1.88;;;26.90;71.80;;;;;;5026945;28;20287;-69
2022/08/07 12:12:30;;;;;;;4.15;1.77;;;26.80;72.20;;;;;;5031147;28;20199;-69
2022/08/07 12:15:04;;;;;;;1.55;1.13;;;26.70;72.40;;;;;;5031165;28;20211;-69
2022/08/07 12:18:02;;;;;;;2.05;1.30;;;26.70;72.90;;;;;;5047049;23;20236;-73
2022/08/07 12:20:44;;;;;;;2.30;1.48;;;26.70;72.70;;;;;;5010949;28;20197;-74
2022/08/07 12:23:28;;;;;;;2.03;1.40;;;26.60;72.00;;;;;;5006406;28;20212;-74
2022/08/07 12:26:11;;;;;;;1.77;1.55;;;26.40;72.30;;;;;;5008180;28;20200;-74
2022/08/07 12:28:57;;;;;;;4.88;1.88;;;26.10;72.20;;;;;;5004863;28;20209;-75
2022/08/07 12:31:37;;;;;;;2.17;1.42;;;26.20;73.40;;;;;;5000532;28;20205;-75
2022/08/07 12:34:04;;;;;;;4.07;1.23;;;26.40;72.60;;;;;;4994728;28;20212;-75
2022/08/07 12:36:32;;;;;;;3.63;1.38;;;26.20;72.50;;;;;;4986560;28;20237;-74
2022/08/07 12:38:59;;;;;;;2.75;1.10;;;26.20;72.90;;;;;;5003220;28;20220;-75
2022/08/07 12:41:26;;;;;;;3.17;1.20;;;26.30;72.80;;;;;;5006277;28;20216;-74
2022/08/07 12:43:56;;;;;;;1.30;1.10;;;26.20;72.10;;;;;;5008059;28;20173;-74
2022/08/07 12:46:41;;;;;;;1.98;1.38;;;25.70;71.80;;;;;;5002876;28;20205;-74
2022/08/07 12:49:41;;;;;;;1.98;1.05;;;25.80;72.70;;;;;;5005351;28;20689;-74
2022/08/07 12:52:13;;;;;;;1.20;1.10;;;26.00;73.30;;;;;;5004063;28;20209;-74
2022/08/07 12:55:03;;;;;;;1.35;1.10;;;26.00;73.40;;;;;;5005560;28;20209;-74
2022/08/07 12:57:35;;;;;;;1.52;1.33;;;26.10;73.40;;;;;;5004072;28;20208;-74
2022/08/07 13:00:06;;;;;;;3.30;1.80;;;26.10;72.50;;;;;;5008233;28;20197;-74
2022/08/07 13:02:46;;;;;;;1.48;1.38;;;25.90;73.00;;;;;;4989146;28;20554;-75
2022/08/07 13:05:25;;;;;;;1.67;1.33;;;25.70;72.80;;;;;;5001223;28;20281;-74
2022/08/07 13:08:05;;;;;;;1.80;1.40;;;25.40;72.70;;;;;;4988726;28;20200;-74
2022/08/07 13:11:09;;;;;;;2.47;1.48;;;25.30;73.20;;;;;;5006928;28;20244;-74
2022/08/07 13:13:41;;;;;;;2.72;1.67;;;25.30;73.90;;;;;;4988739;28;20219;-74
2022/08/07 13:16:12;;;;;;;1.92;1.35;;;25.20;73.50;;;;;;5006826;28;20665;-74
2022/08/07 13:18:56;;;;;;;4.75;1.85;;;25.20;74.30;;;;;;5004993;28;20585;-75
2022/08/07 13:21:30;;;;;;;3.42;2.50;;;25.40;74.30;;;;;;5001218;28;20197;-74